This is the latest recevied weather packets stored in our database for station/object IU1FIL-23. If no packets are shown the sender has not sent any weather packets the latest 10 day(s).
| Time | Temp. | Humidity | Pressure | Rain* | Wind** | Luminosity | Snow |
|---|---|---|---|---|---|---|---|
| 1777700362 | 11.11° C | 43% | 1028 hPa | - | - | - | - |
| 1777699758 | 11.11° C | 43% | 1028 hPa | - | - | - | - |
| 1777699154 | 10.56° C | 43% | 1027.8 hPa | - | - | - | - |
| 1777698550 | 10.56° C | 43% | 1027.8 hPa | - | - | - | - |
| 1777697946 | 11.11° C | 41% | 1027.8 hPa | - | - | - | - |
| 1777697342 | 11.11° C | 41% | 1027.7 hPa | - | - | - | - |
| 1777696738 | 9.44° C | 43% | 1027.7 hPa | - | - | - | - |
| 1777696134 | 9.44° C | 43% | 1027.7 hPa | - | - | - | - |
| 1777695530 | 9.44° C | 43% | 1027.7 hPa | - | - | - | - |
| 1777694926 | 8.89° C | 43% | 1027.8 hPa | - | - | - | - |
| 1777694321 | 8.33° C | 43% | 1027.7 hPa | - | - | - | - |
| 1777693717 | 8.33° C | 43% | 1027.7 hPa | - | - | - | - |
| 1777693113 | 7.78° C | 43% | 1027.7 hPa | - | - | - | - |
| 1777692509 | 8.33° C | 43% | 1027.7 hPa | - | - | - | - |
| 1777691905 | 8.33° C | 44% | 1027.7 hPa | - | - | - | - |
| 1777691301 | 8.33° C | 44% | 1027.7 hPa | - | - | - | - |
| 1777690697 | 8.33° C | 44% | 1027.8 hPa | - | - | - | - |
| 1777690092 | 8.89° C | 43% | 1027.8 hPa | - | - | - | - |
| 1777689488 | 8.89° C | 43% | 1028 hPa | - | - | - | - |
| 1777688884 | 9.44° C | 43% | 1027.9 hPa | - | - | - | - |
| 1777674376 | 11.11° C | 35% | 1027.9 hPa | - | - | - | - |
| 1777673772 | 11.11° C | 35% | 1027.9 hPa | - | - | - | - |
| 1777673168 | 10.56° C | 36% | 1027.8 hPa | - | - | - | - |
| 1777671949 | 11.11° C | 36% | 1027.6 hPa | - | - | - | - |
| 1777671345 | 11.11° C | 36% | 1027.6 hPa | - | - | - | - |
* Rain since midnight (hover to see other rain measurements)
** Current wind speed in m/s (hover to see current wind gust speed)